createdAt,value
2022-09-15T00:05:08.265Z,33.20
2022-09-15T00:15:08.251Z,35.50
2022-09-15T00:25:08.261Z,38.50
2022-09-15T00:35:08.255Z,35.70
2022-09-15T00:45:08.255Z,40.20
2022-09-15T00:55:08.260Z,39.70
2022-09-15T01:05:08.289Z,67.80
2022-09-15T01:15:08.314Z,52.90
2022-09-15T01:25:08.304Z,33.80
2022-09-15T01:35:08.269Z,23.00
2022-09-15T01:45:08.280Z,24.30
2022-09-15T01:55:08.314Z,21.40
2022-09-15T02:05:08.669Z,17.00
2022-09-15T02:15:08.298Z,17.50
2022-09-15T02:25:08.309Z,13.60
2022-09-15T02:35:08.315Z,13.10
2022-09-15T02:45:08.303Z,15.50
2022-09-15T02:55:08.313Z,15.30
2022-09-15T03:05:08.357Z,14.80
2022-09-15T03:15:08.315Z,13.50
2022-09-15T03:25:08.319Z,15.00
2022-09-15T03:35:08.316Z,12.20
2022-09-15T03:45:08.333Z,9.10
2022-09-15T03:55:08.334Z,16.30
2022-09-15T04:05:08.366Z,17.40
2022-09-15T04:15:08.332Z,21.60
2022-09-15T04:25:08.343Z,22.10
2022-09-15T04:35:08.344Z,20.50
2022-09-15T04:45:08.349Z,15.50
2022-09-15T04:55:08.349Z,16.20
2022-09-15T05:05:08.517Z,12.40
2022-09-15T05:15:08.356Z,14.40
2022-09-15T05:25:08.358Z,12.10
2022-09-15T05:35:08.374Z,14.80
2022-09-15T05:45:08.389Z,12.00
2022-09-15T05:55:08.383Z,14.80
2022-09-15T06:05:08.445Z,15.30
2022-09-15T06:15:08.380Z,16.40
2022-09-15T06:25:08.400Z,12.40
2022-09-15T06:35:08.394Z,14.50
2022-09-15T06:45:08.396Z,10.60
2022-09-15T06:55:08.399Z,11.50
2022-09-15T07:05:08.435Z,12.00
2022-09-15T07:15:08.415Z,10.30
2022-09-15T07:25:08.410Z,13.00
2022-09-15T07:35:08.420Z,12.80
2022-09-15T07:45:08.420Z,12.80
2022-09-15T07:55:08.424Z,11.60
2022-09-15T08:05:08.466Z,9.70
2022-09-15T08:15:08.526Z,8.80
2022-09-15T08:25:08.449Z,8.20
2022-09-15T08:35:08.437Z,8.80
2022-09-15T08:45:08.435Z,8.10
2022-09-15T08:55:08.449Z,8.50
2022-09-15T09:05:08.492Z,9.80
2022-09-15T09:15:08.456Z,10.70
2022-09-15T09:25:25.794Z,8.20
2022-09-15T09:35:08.463Z,7.70
2022-09-15T09:45:08.470Z,8.40
2022-09-15T09:55:08.467Z,8.00
2022-09-15T10:05:08.629Z,7.80
2022-09-15T10:15:08.479Z,10.80
2022-09-15T10:25:08.499Z,9.10
2022-09-15T10:35:08.482Z,9.90
2022-09-15T10:45:08.484Z,10.70
2022-09-15T10:55:08.502Z,8.70
2022-09-15T11:05:08.541Z,9.30
2022-09-15T11:15:08.516Z,10.70
2022-09-15T11:25:08.505Z,10.70
2022-09-15T11:35:08.506Z,9.80
2022-09-15T11:45:08.518Z,8.50
2022-09-15T11:55:08.515Z,10.40
2022-09-15T12:05:08.556Z,6.50
2022-09-15T12:15:08.529Z,7.90
2022-09-15T12:25:08.543Z,7.80
2022-09-15T12:35:13.349Z,7.50
2022-09-15T12:45:08.539Z,7.80
2022-09-15T12:55:08.549Z,7.30
2022-09-15T13:05:08.599Z,9.00
2022-09-15T13:15:08.754Z,7.40
2022-09-15T13:25:08.592Z,6.60
2022-09-15T13:35:15.687Z,9.00
2022-09-15T13:45:08.574Z,8.10
2022-09-15T13:55:08.589Z,9.00
2022-09-15T14:05:08.610Z,9.10
2022-09-15T14:15:08.580Z,7.60
2022-09-15T14:25:08.588Z,8.30
2022-09-15T14:35:08.594Z,7.50
2022-09-15T14:55:08.615Z,8.50
2022-09-15T15:05:08.641Z,10.10
2022-09-15T15:15:08.613Z,6.20
2022-09-15T15:25:08.623Z,7.00
2022-09-15T15:35:08.630Z,7.30
2022-09-15T15:45:08.627Z,8.80
2022-09-15T15:55:08.637Z,9.60
2022-09-15T16:05:08.669Z,9.80
2022-09-15T16:25:08.651Z,6.00
2022-09-15T16:35:08.653Z,4.70
2022-09-15T16:45:08.656Z,4.50
2022-09-15T16:55:08.663Z,5.50
2022-09-15T17:05:08.702Z,4.80
2022-09-15T17:15:08.657Z,4.40
2022-09-15T17:25:08.675Z,5.10
2022-09-15T17:35:08.692Z,5.00
2022-09-15T17:45:08.675Z,6.40
2022-09-15T17:55:08.707Z,5.90
2022-09-15T18:05:08.751Z,7.60
2022-09-15T18:15:08.791Z,5.70
2022-09-15T18:25:08.819Z,7.80
2022-09-15T18:45:44.336Z,14.90
2022-09-15T18:55:08.731Z,8.20
2022-09-15T19:05:08.755Z,17.30
2022-09-15T19:15:10.915Z,6.80
2022-09-15T19:25:08.915Z,8.20
2022-09-15T19:35:08.893Z,8.00
2022-09-15T19:45:09.047Z,8.20
2022-09-15T19:55:08.919Z,9.20
2022-09-15T20:05:09.076Z,5.60
2022-09-15T20:15:08.868Z,7.60
2022-09-15T20:25:08.827Z,7.00
2022-09-15T20:35:08.765Z,7.00
2022-09-15T20:45:08.761Z,8.20
2022-09-15T20:55:08.742Z,6.80
2022-09-15T21:05:08.784Z,7.90
2022-09-15T21:15:08.757Z,5.40
2022-09-15T21:25:08.770Z,7.80
2022-09-15T21:35:08.773Z,10.70
2022-09-15T21:45:08.757Z,7.70
2022-09-15T21:55:08.761Z,6.00
2022-09-15T22:05:08.811Z,7.50
2022-09-15T22:15:08.780Z,7.40
2022-09-15T22:25:08.778Z,8.40
2022-09-15T22:35:08.784Z,9.60
2022-09-15T22:45:08.789Z,6.90
2022-09-15T22:55:08.789Z,6.00
2022-09-15T23:05:08.834Z,6.70
2022-09-15T23:15:08.797Z,6.50
2022-09-15T23:25:08.800Z,7.80
2022-09-15T23:35:08.820Z,7.00
2022-09-15T23:45:08.815Z,7.70
2022-09-15T23:55:08.807Z,6.40
